createdAt,value
2017-05-26T00:01:39.657Z,64.80
2017-05-26T00:04:08.752Z,64.80
2017-05-26T00:06:37.802Z,65.00
2017-05-26T00:09:06.865Z,65.20
2017-05-26T00:11:35.909Z,65.30
2017-05-26T00:14:05.031Z,65.40
2017-05-26T00:16:34.128Z,65.60
2017-05-26T00:19:03.176Z,66.00
2017-05-26T00:21:32.246Z,66.10
2017-05-26T00:24:01.313Z,66.30
2017-05-26T00:26:30.382Z,66.50
2017-05-26T00:28:59.446Z,66.60
2017-05-26T00:31:28.508Z,66.80
2017-05-26T00:33:57.586Z,67.10
2017-05-26T00:36:26.700Z,67.60
2017-05-26T00:38:55.799Z,67.90
2017-05-26T00:41:24.849Z,68.60
2017-05-26T00:43:54.090Z,69.10
2017-05-26T00:46:23.207Z,69.60
2017-05-26T00:48:52.280Z,70.20
2017-05-26T00:51:21.350Z,70.70
2017-05-26T00:53:50.470Z,71.60
2017-05-26T00:56:19.512Z,71.10
2017-05-26T00:58:48.658Z,71.50
2017-05-26T01:01:17.709Z,72.30
2017-05-26T01:03:46.853Z,72.70
2017-05-26T01:06:15.903Z,73.10
2017-05-26T01:08:45.056Z,73.40
2017-05-26T01:11:14.148Z,73.80
2017-05-26T01:13:43.201Z,74.50
2017-05-26T01:16:12.337Z,74.90
2017-05-26T01:18:41.387Z,75.60
2017-05-26T01:21:10.530Z,76.20
2017-05-26T01:23:39.604Z,76.70
2017-05-26T01:26:08.711Z,77.00
2017-05-26T01:28:37.801Z,77.90
2017-05-26T01:31:07.000Z,78.50
2017-05-26T01:33:36.063Z,79.20
2017-05-26T01:36:05.294Z,79.20
2017-05-26T01:38:34.389Z,80.10
2017-05-26T01:41:03.464Z,81.00
2017-05-26T01:43:32.589Z,81.40
2017-05-26T01:46:01.679Z,82.60
2017-05-26T01:48:30.778Z,82.90
2017-05-26T01:50:59.878Z,83.20
2017-05-26T01:53:28.967Z,83.90
2017-05-26T01:55:58.019Z,84.00
2017-05-26T01:58:27.054Z,84.10
2017-05-26T02:00:56.150Z,84.50
2017-05-26T02:03:25.198Z,84.70
2017-05-26T02:05:54.265Z,84.70
2017-05-26T02:08:23.337Z,85.50
2017-05-26T02:10:52.400Z,85.40
2017-05-26T02:13:21.458Z,85.90
2017-05-26T02:15:50.541Z,86.00
2017-05-26T02:18:19.660Z,85.90
2017-05-26T02:20:48.721Z,86.50
2017-05-26T02:23:17.766Z,86.60
2017-05-26T02:25:46.918Z,87.20
2017-05-26T02:28:16.023Z,87.70
2017-05-26T02:30:45.109Z,87.80
2017-05-26T02:33:14.200Z,87.80
2017-05-26T02:35:43.259Z,88.50
2017-05-26T02:38:12.393Z,88.90
2017-05-26T02:40:41.442Z,88.80
2017-05-26T02:43:10.512Z,89.70
2017-05-26T02:45:39.694Z,90.30
2017-05-26T02:48:08.774Z,90.40
2017-05-26T02:50:37.878Z,90.60
2017-05-26T02:53:06.942Z,90.80
2017-05-26T02:55:36.092Z,91.00
2017-05-26T02:58:05.129Z,91.10
2017-05-26T03:00:34.260Z,91.20
2017-05-26T03:03:03.319Z,91.20
2017-05-26T03:05:32.364Z,91.20
2017-05-26T03:08:01.446Z,91.30
2017-05-26T03:10:30.494Z,91.50
2017-05-26T03:12:59.547Z,91.50
2017-05-26T03:15:28.626Z,91.50
2017-05-26T03:17:57.690Z,91.60
2017-05-26T03:20:26.815Z,91.70
2017-05-26T03:22:55.874Z,91.70
2017-05-26T03:25:25.005Z,91.70
2017-05-26T03:27:54.114Z,91.80
2017-05-26T03:30:23.212Z,91.90
2017-05-26T03:32:52.304Z,92.20
2017-05-26T03:35:21.359Z,92.40
2017-05-26T03:37:50.494Z,92.60
2017-05-26T03:40:19.577Z,92.70
2017-05-26T03:42:48.629Z,92.90
2017-05-26T03:45:17.708Z,93.00
2017-05-26T03:47:46.761Z,92.90
2017-05-26T03:50:15.806Z,92.80
2017-05-26T03:52:44.869Z,92.90
2017-05-26T03:55:13.957Z,92.90
2017-05-26T03:57:43.030Z,93.00
2017-05-26T04:00:12.078Z,93.00
2017-05-26T04:02:41.141Z,92.90
2017-05-26T04:05:10.229Z,93.10
2017-05-26T04:07:39.283Z,93.20
2017-05-26T04:10:08.433Z,93.20
2017-05-26T04:12:37.501Z,93.20
2017-05-26T04:15:06.565Z,93.40
2017-05-26T04:17:35.724Z,93.30
2017-05-26T04:20:04.792Z,93.20
2017-05-26T04:22:33.853Z,93.30
2017-05-26T04:25:02.922Z,93.30
2017-05-26T04:27:32.001Z,93.30
2017-05-26T04:30:01.144Z,93.20
2017-05-26T04:32:30.208Z,93.30
2017-05-26T04:34:59.293Z,93.30
2017-05-26T04:37:28.370Z,93.20
2017-05-26T04:39:57.480Z,93.30
2017-05-26T04:42:26.564Z,93.20
2017-05-26T04:44:55.625Z,93.10
2017-05-26T04:47:24.871Z,93.00
2017-05-26T04:49:53.925Z,92.90
2017-05-26T04:52:22.970Z,92.90
2017-05-26T04:54:52.057Z,92.70
2017-05-26T04:57:21.152Z,92.60
2017-05-26T04:59:50.199Z,92.40
2017-05-26T05:02:20.165Z,92.10
2017-05-26T05:04:49.221Z,91.90
2017-05-26T05:07:18.357Z,92.10
2017-05-26T05:09:47.794Z,92.20
2017-05-26T05:12:16.860Z,92.20
2017-05-26T05:14:45.963Z,92.20
2017-05-26T05:17:15.008Z,92.20
2017-05-26T05:19:44.141Z,92.10
2017-05-26T05:22:13.214Z,92.00
2017-05-26T05:24:42.278Z,92.00
2017-05-26T05:27:11.441Z,92.10
2017-05-26T05:29:40.525Z,92.10
2017-05-26T05:32:09.635Z,92.50
2017-05-26T05:34:38.688Z,92.50
2017-05-26T05:37:07.742Z,92.70
2017-05-26T05:39:36.809Z,92.90
2017-05-26T05:42:05.905Z,93.00
2017-05-26T05:44:35.009Z,92.90
2017-05-26T05:47:04.066Z,92.90
2017-05-26T05:49:33.127Z,92.80
2017-05-26T05:52:02.193Z,92.60
2017-05-26T05:54:31.287Z,92.50
2017-05-26T05:57:00.371Z,92.50
2017-05-26T05:59:29.445Z,92.40
2017-05-26T06:01:58.590Z,92.20
2017-05-26T06:04:27.669Z,92.20
2017-05-26T06:06:56.767Z,92.10
2017-05-26T06:09:25.869Z,92.00
2017-05-26T06:11:54.959Z,91.70
2017-05-26T06:14:24.012Z,91.50
2017-05-26T06:16:53.077Z,91.20
2017-05-26T06:19:22.141Z,91.30
2017-05-26T06:21:51.251Z,91.20
2017-05-26T06:24:20.304Z,91.20
2017-05-26T06:26:49.479Z,91.30
2017-05-26T06:29:18.558Z,91.10
2017-05-26T06:31:47.638Z,91.20
2017-05-26T06:34:16.726Z,91.20
2017-05-26T06:36:45.913Z,91.70
2017-05-26T06:39:15.033Z,91.50
2017-05-26T06:41:44.116Z,91.40
2017-05-26T06:44:13.161Z,91.20
2017-05-26T06:46:42.321Z,91.30
2017-05-26T06:49:11.382Z,91.00
2017-05-26T06:51:40.501Z,91.20
2017-05-26T06:54:10.549Z,91.10
2017-05-26T06:56:39.614Z,91.20
2017-05-26T06:59:08.718Z,91.10
2017-05-26T07:01:37.766Z,91.10
2017-05-26T07:04:06.830Z,91.00
2017-05-26T07:06:35.892Z,90.90
2017-05-26T07:09:04.999Z,91.00
2017-05-26T07:11:34.075Z,90.90
2017-05-26T07:14:03.177Z,91.00
2017-05-26T07:16:32.253Z,90.80
2017-05-26T07:19:01.368Z,90.60
2017-05-26T07:21:30.460Z,90.20
2017-05-26T07:23:59.584Z,90.20
2017-05-26T07:26:28.646Z,90.20
2017-05-26T07:28:57.700Z,89.10
2017-05-26T07:31:26.779Z,87.90
2017-05-26T07:33:55.831Z,87.50
2017-05-26T07:36:24.917Z,87.90
2017-05-26T07:38:54.040Z,87.60
2017-05-26T07:41:23.133Z,87.70
2017-05-26T07:43:52.272Z,87.90
2017-05-26T07:46:21.441Z,87.70
2017-05-26T07:48:50.526Z,87.40
2017-05-26T07:51:19.620Z,86.50
2017-05-26T07:53:48.702Z,86.50
2017-05-26T07:56:17.808Z,86.60
2017-05-26T07:58:46.910Z,86.30
2017-05-26T08:01:15.992Z,85.80
2017-05-26T08:03:45.038Z,85.00
2017-05-26T08:06:14.128Z,85.70
2017-05-26T08:08:43.204Z,85.60
2017-05-26T08:11:12.260Z,85.40
2017-05-26T08:13:41.376Z,84.70
2017-05-26T08:16:10.476Z,84.30
2017-05-26T08:18:39.582Z,84.60
2017-05-26T08:21:08.653Z,84.50
2017-05-26T08:23:37.771Z,83.70
2017-05-26T08:26:06.897Z,84.30
2017-05-26T08:28:36.061Z,82.70
2017-05-26T08:31:05.117Z,81.60
2017-05-26T08:33:34.205Z,81.30
2017-05-26T08:36:03.316Z,80.80
2017-05-26T08:38:32.520Z,79.70
2017-05-26T08:41:01.569Z,79.70
2017-05-26T08:43:30.699Z,79.70
2017-05-26T08:45:59.769Z,80.00
2017-05-26T08:48:28.891Z,78.30
2017-05-26T08:50:58.085Z,76.60
2017-05-26T08:53:27.205Z,76.20
2017-05-26T08:55:56.270Z,75.70
2017-05-26T08:58:25.379Z,75.60
2017-05-26T09:00:54.434Z,74.90
2017-05-26T09:03:23.524Z,74.30
2017-05-26T09:05:52.652Z,75.20
2017-05-26T09:08:21.770Z,74.10
2017-05-26T09:10:50.866Z,74.60
2017-05-26T09:13:19.952Z,73.30
2017-05-26T09:15:49.041Z,72.60
2017-05-26T09:18:18.147Z,72.40
2017-05-26T09:20:47.241Z,71.60
2017-05-26T09:23:16.298Z,71.70
2017-05-26T09:25:45.441Z,72.20
2017-05-26T09:28:14.525Z,71.70
2017-05-26T09:30:43.589Z,71.90
2017-05-26T09:33:12.665Z,70.70
2017-05-26T09:35:45.041Z,69.50
2017-05-26T09:38:14.124Z,68.90
2017-05-26T09:40:43.185Z,69.50
2017-05-26T09:43:12.279Z,69.30
2017-05-26T09:45:41.373Z,68.90
2017-05-26T09:48:10.486Z,69.80
2017-05-26T09:50:39.559Z,69.20
2017-05-26T09:53:08.663Z,69.90
2017-05-26T09:55:37.753Z,70.70
2017-05-26T09:58:06.852Z,70.90
2017-05-26T10:00:35.926Z,71.00
2017-05-26T10:03:05.012Z,69.80
2017-05-26T10:05:34.077Z,69.70
2017-05-26T10:08:03.138Z,70.10
2017-05-26T10:10:32.234Z,72.10
2017-05-26T10:13:01.326Z,69.80
2017-05-26T10:15:30.437Z,70.00
2017-05-26T10:17:59.522Z,69.30
2017-05-26T10:20:28.601Z,68.80
2017-05-26T10:22:57.662Z,68.10
2017-05-26T10:25:26.719Z,67.40
2017-05-26T10:27:55.781Z,66.60
2017-05-26T10:30:24.923Z,67.70
2017-05-26T10:32:54.019Z,66.40
2017-05-26T10:35:23.075Z,66.30
2017-05-26T10:37:52.188Z,66.20
2017-05-26T10:40:21.299Z,66.10
2017-05-26T10:42:50.349Z,64.90
2017-05-26T10:45:19.426Z,64.00
2017-05-26T10:47:48.470Z,63.60
2017-05-26T10:50:17.564Z,64.10
2017-05-26T10:52:46.643Z,66.90
2017-05-26T10:55:15.757Z,64.20
2017-05-26T10:57:44.857Z,64.10
2017-05-26T11:00:13.945Z,63.60
2017-05-26T11:02:42.985Z,63.60
2017-05-26T11:05:12.045Z,62.60
2017-05-26T11:07:41.096Z,62.50
2017-05-26T11:10:10.245Z,61.70
2017-05-26T11:12:39.325Z,60.60
2017-05-26T11:15:08.390Z,60.10
2017-05-26T11:17:37.449Z,58.80
2017-05-26T11:20:06.518Z,57.60
2017-05-26T11:22:35.606Z,56.90
2017-05-26T11:25:04.710Z,57.60
2017-05-26T11:27:33.741Z,55.40
2017-05-26T11:30:02.890Z,56.30
2017-05-26T11:32:31.998Z,55.30
2017-05-26T11:35:01.068Z,55.30
2017-05-26T11:37:30.101Z,55.30
2017-05-26T11:39:59.172Z,55.30
2017-05-26T11:42:28.236Z,56.00
2017-05-26T11:44:57.383Z,54.30
2017-05-26T11:47:26.465Z,54.00
2017-05-26T11:49:55.561Z,54.30
2017-05-26T11:52:24.601Z,53.30
2017-05-26T11:54:53.758Z,53.50
2017-05-26T11:57:22.808Z,53.50
2017-05-26T11:59:51.870Z,54.90
2017-05-26T12:02:20.918Z,55.00
2017-05-26T12:04:49.953Z,54.30
2017-05-26T12:07:19.031Z,51.60
2017-05-26T12:09:48.068Z,51.30
2017-05-26T12:12:17.236Z,47.60
2017-05-26T12:14:46.416Z,43.00
2017-05-26T12:17:15.513Z,39.50
2017-05-26T12:19:44.621Z,35.80
2017-05-26T12:22:13.700Z,36.50
2017-05-26T12:24:42.805Z,38.70
2017-05-26T12:27:11.891Z,41.40
2017-05-26T12:29:40.992Z,42.10
2017-05-26T12:32:10.043Z,43.40
2017-05-26T12:34:39.105Z,40.20
2017-05-26T12:37:08.157Z,38.70
2017-05-26T12:39:37.281Z,38.10
2017-05-26T12:42:06.348Z,36.90
2017-05-26T12:44:35.490Z,36.00
2017-05-26T12:47:04.561Z,36.90
2017-05-26T12:49:33.663Z,38.30
2017-05-26T12:52:02.712Z,39.90
2017-05-26T12:54:31.796Z,40.90
2017-05-26T12:57:00.845Z,38.30
2017-05-26T12:59:30.032Z,37.40
2017-05-26T13:01:59.163Z,36.80
2017-05-26T13:04:28.293Z,37.70
2017-05-26T13:06:57.375Z,36.30
2017-05-26T13:09:26.404Z,36.70
2017-05-26T13:11:55.464Z,35.30
2017-05-26T13:14:24.682Z,34.30
2017-05-26T13:16:53.776Z,35.40
2017-05-26T13:19:22.873Z,38.80
2017-05-26T13:21:52.057Z,41.60
2017-05-26T13:24:21.169Z,42.20
2017-05-26T13:26:50.212Z,42.30
2017-05-26T13:29:19.367Z,39.80
2017-05-26T13:31:48.469Z,39.80
2017-05-26T13:34:17.510Z,39.70
2017-05-26T13:36:46.565Z,39.20
2017-05-26T13:39:15.642Z,38.40
2017-05-26T13:41:44.729Z,36.40
2017-05-26T13:44:13.781Z,33.20
2017-05-26T13:46:42.826Z,32.40
2017-05-26T13:49:11.925Z,33.80
2017-05-26T13:51:40.973Z,35.30
2017-05-26T13:54:10.033Z,36.20
2017-05-26T13:56:39.069Z,34.80
2017-05-26T13:59:08.218Z,31.80
2017-05-26T14:01:37.300Z,29.30
2017-05-26T14:04:06.393Z,28.80
2017-05-26T14:06:35.470Z,28.00
2017-05-26T14:09:04.585Z,28.20
2017-05-26T14:11:33.679Z,30.20
2017-05-26T14:14:02.730Z,31.80
2017-05-26T14:16:31.878Z,32.40
2017-05-26T14:19:00.978Z,31.90
2017-05-26T14:21:30.022Z,31.50
2017-05-26T14:23:59.078Z,28.90
2017-05-26T14:26:28.123Z,29.90
2017-05-26T14:28:57.282Z,28.20
2017-05-26T14:31:26.349Z,25.70
2017-05-26T14:33:55.444Z,24.80
2017-05-26T14:36:23.763Z,24.70
2017-05-26T14:38:52.796Z,26.10
2017-05-26T14:41:21.921Z,25.70
2017-05-26T14:46:26.350Z,25.10
2017-05-26T14:48:55.450Z,25.20
2017-05-26T14:51:24.484Z,26.30
2017-05-26T14:53:53.542Z,25.80
2017-05-26T14:56:22.637Z,27.20
2017-05-26T14:58:51.738Z,29.50
2017-05-26T15:01:20.777Z,30.80
2017-05-26T15:03:49.885Z,31.80
2017-05-26T15:06:18.955Z,31.30
2017-05-26T15:08:47.993Z,31.10
2017-05-26T15:11:17.051Z,32.30
2017-05-26T15:13:46.163Z,32.60
2017-05-26T15:16:15.261Z,34.10
2017-05-26T15:18:44.348Z,35.40
2017-05-26T15:21:13.450Z,35.90
2017-05-26T15:23:42.648Z,35.30
2017-05-26T15:26:11.740Z,36.10
2017-05-26T15:28:40.817Z,35.70
2017-05-26T15:31:09.845Z,33.30
2017-05-26T15:33:38.882Z,32.00
2017-05-26T15:36:07.940Z,31.90
2017-05-26T15:38:36.980Z,32.60
2017-05-26T15:41:06.122Z,33.50
2017-05-26T15:43:35.226Z,35.20
2017-05-26T15:46:04.308Z,37.00
2017-05-26T15:48:33.399Z,38.40
2017-05-26T15:51:02.445Z,39.00
2017-05-26T15:53:31.621Z,39.20
2017-05-26T15:56:00.699Z,38.60
2017-05-26T15:58:29.730Z,38.50
2017-05-26T16:00:58.813Z,39.00
2017-05-26T16:03:27.850Z,39.50
2017-05-26T16:05:56.934Z,40.10
2017-05-26T16:08:25.969Z,40.90
2017-05-26T16:10:55.029Z,41.20
2017-05-26T16:13:24.090Z,41.80
2017-05-26T16:15:53.137Z,41.40
2017-05-26T16:18:22.198Z,41.30
2017-05-26T16:20:51.263Z,39.60
2017-05-26T16:23:20.300Z,38.10
2017-05-26T16:25:49.365Z,35.30
2017-05-26T16:28:18.435Z,33.60
2017-05-26T16:30:47.512Z,33.90
2017-05-26T16:33:16.543Z,34.40
2017-05-26T16:35:45.611Z,33.60
2017-05-26T16:38:14.708Z,34.50
2017-05-26T16:40:43.767Z,35.80
2017-05-26T16:43:12.912Z,37.60
2017-05-26T16:45:42.416Z,38.30
2017-05-26T16:48:11.477Z,37.50
2017-05-26T16:50:40.605Z,39.10
2017-05-26T16:53:09.695Z,38.90
2017-05-26T16:55:38.793Z,37.80
2017-05-26T16:58:07.828Z,36.70
2017-05-26T17:00:36.985Z,35.00
2017-05-26T17:03:06.042Z,34.50
2017-05-26T17:05:35.180Z,34.10
2017-05-26T17:08:04.295Z,34.10
2017-05-26T17:10:33.329Z,33.30
2017-05-26T17:13:02.429Z,32.90
2017-05-26T17:15:31.477Z,32.50
2017-05-26T17:18:00.634Z,32.50
2017-05-26T17:20:29.742Z,32.30
2017-05-26T17:22:58.773Z,33.40
2017-05-26T17:25:27.841Z,34.90
2017-05-26T17:27:56.905Z,34.10
2017-05-26T17:30:25.969Z,33.50
2017-05-26T17:32:55.133Z,34.40
2017-05-26T17:35:24.176Z,34.00
2017-05-26T17:37:53.321Z,34.20
2017-05-26T17:40:22.425Z,34.30
2017-05-26T17:42:51.458Z,33.60
2017-05-26T17:45:20.593Z,34.30
2017-05-26T17:47:49.707Z,33.90
2017-05-26T17:50:18.770Z,33.80
2017-05-26T17:52:47.833Z,33.50
2017-05-26T17:55:16.874Z,34.40
2017-05-26T17:57:45.935Z,34.60
2017-05-26T18:00:14.982Z,34.60
2017-05-26T18:02:44.082Z,35.60
2017-05-26T18:05:13.169Z,35.40
2017-05-26T18:07:42.221Z,35.30
2017-05-26T18:10:11.286Z,35.70
2017-05-26T18:12:40.326Z,36.40
2017-05-26T18:15:09.402Z,36.50
2017-05-26T18:17:38.448Z,36.20
2017-05-26T18:20:07.500Z,37.10
2017-05-26T18:22:36.634Z,37.10
2017-05-26T18:25:05.700Z,37.70
2017-05-26T18:27:34.850Z,38.30
2017-05-26T18:30:03.898Z,38.10
2017-05-26T18:32:33.040Z,39.30
2017-05-26T18:35:02.113Z,40.00
2017-05-26T18:37:31.210Z,40.80
2017-05-26T18:40:00.312Z,40.50
2017-05-26T18:42:29.412Z,41.60
2017-05-26T18:44:58.484Z,43.40
2017-05-26T18:47:27.540Z,44.40
2017-05-26T18:49:56.577Z,45.90
2017-05-26T18:52:25.680Z,46.90
2017-05-26T18:54:54.716Z,47.60
2017-05-26T18:57:23.788Z,47.30
2017-05-26T18:59:52.882Z,48.40
2017-05-26T19:02:21.916Z,49.80
2017-05-26T19:04:50.979Z,50.00
2017-05-26T19:07:20.064Z,51.30
2017-05-26T19:09:49.148Z,51.10
2017-05-26T19:12:18.968Z,52.10
2017-05-26T19:14:48.018Z,52.70
2017-05-26T19:17:17.172Z,54.00
2017-05-26T19:19:46.250Z,52.80
2017-05-26T19:22:15.319Z,54.30
2017-05-26T19:24:44.439Z,54.60
2017-05-26T19:27:13.548Z,54.80
2017-05-26T19:29:42.633Z,55.80
2017-05-26T19:32:11.687Z,55.90
2017-05-26T19:34:40.830Z,55.70
2017-05-26T19:37:09.873Z,55.40
2017-05-26T19:39:38.931Z,56.10
2017-05-26T19:42:07.997Z,56.40
2017-05-26T19:44:37.065Z,56.20
2017-05-26T19:47:06.129Z,56.90
2017-05-26T19:49:35.207Z,56.30
2017-05-26T19:52:04.296Z,56.70
2017-05-26T19:54:33.372Z,57.00
2017-05-26T19:57:02.586Z,58.00
2017-05-26T19:59:31.718Z,58.00
2017-05-26T20:02:00.768Z,58.60
2017-05-26T20:04:29.833Z,58.50
2017-05-26T20:06:58.882Z,58.70
2017-05-26T20:09:28.001Z,58.90
2017-05-26T20:11:57.076Z,59.10
2017-05-26T20:14:26.162Z,60.40
2017-05-26T20:16:55.288Z,60.30
2017-05-26T20:19:24.771Z,60.40
2017-05-26T20:21:53.842Z,60.70
2017-05-26T20:24:22.903Z,61.70
2017-05-26T20:26:51.974Z,62.10
2017-05-26T20:29:21.058Z,61.60
2017-05-26T20:31:50.133Z,62.30
2017-05-26T20:34:19.185Z,62.40
2017-05-26T20:36:48.347Z,62.60
2017-05-26T20:39:17.455Z,63.10
2017-05-26T20:41:46.538Z,63.60
2017-05-26T20:44:15.636Z,63.80
2017-05-26T20:46:44.725Z,64.10
2017-05-26T20:49:13.789Z,64.40
2017-05-26T20:51:42.915Z,64.90
2017-05-26T20:54:11.973Z,64.80
2017-05-26T20:56:41.032Z,65.20
2017-05-26T20:59:10.212Z,65.40
2017-05-26T21:01:39.254Z,65.30
2017-05-26T21:04:08.306Z,65.60
2017-05-26T21:06:37.535Z,65.90
2017-05-26T21:09:06.530Z,66.50
2017-05-26T21:11:35.943Z,66.50
2017-05-26T21:14:05.008Z,67.20
2017-05-26T21:16:34.049Z,67.50
2017-05-26T21:19:03.121Z,67.70
2017-05-26T21:21:32.158Z,67.90
2017-05-26T21:24:01.234Z,68.10
2017-05-26T21:26:30.306Z,69.00
2017-05-26T21:28:59.446Z,69.00
2017-05-26T21:31:28.562Z,69.20
2017-05-26T21:33:57.618Z,70.70
2017-05-26T21:36:26.681Z,70.00
2017-05-26T21:38:55.756Z,70.30
2017-05-26T21:41:24.829Z,70.60
2017-05-26T21:43:53.926Z,70.50
2017-05-26T21:46:23.036Z,70.80
2017-05-26T21:48:52.091Z,71.00
2017-05-26T21:51:21.141Z,71.10
2017-05-26T21:53:50.184Z,71.30
2017-05-26T21:56:19.260Z,71.60
2017-05-26T21:58:48.310Z,72.30
2017-05-26T22:01:17.405Z,73.10
2017-05-26T22:03:46.500Z,73.00
2017-05-26T22:06:15.561Z,73.10
2017-05-26T22:08:44.693Z,73.00
2017-05-26T22:11:13.753Z,73.60
2017-05-26T22:13:42.885Z,73.20
2017-05-26T22:16:11.942Z,73.50
2017-05-26T22:18:41.061Z,74.00
2017-05-26T22:21:10.129Z,73.80
2017-05-26T22:23:39.268Z,74.00
2017-05-26T22:26:08.344Z,73.90
2017-05-26T22:28:37.403Z,74.40
2017-05-26T22:31:06.538Z,74.90
2017-05-26T22:33:35.637Z,74.90
2017-05-26T22:36:04.684Z,74.90
2017-05-26T22:38:33.845Z,75.10
2017-05-26T22:41:02.939Z,75.50
2017-05-26T22:43:31.982Z,75.60
2017-05-26T22:46:01.043Z,75.80
2017-05-26T22:48:30.114Z,75.90
2017-05-26T22:50:59.168Z,75.90
2017-05-26T22:53:28.307Z,76.10
2017-05-26T22:55:57.404Z,76.20
2017-05-26T22:58:26.440Z,76.50
2017-05-26T23:00:55.484Z,76.60
2017-05-26T23:03:24.641Z,76.30
2017-05-26T23:05:53.690Z,77.10
2017-05-26T23:08:22.855Z,76.90
2017-05-26T23:10:51.894Z,77.20
2017-05-26T23:13:20.943Z,77.90
2017-05-26T23:15:50.005Z,77.80
2017-05-26T23:18:19.092Z,77.80
2017-05-26T23:20:48.177Z,78.00
2017-05-26T23:23:17.226Z,77.80
2017-05-26T23:25:46.279Z,78.50
2017-05-26T23:28:15.369Z,78.20
2017-05-26T23:30:44.456Z,78.40
2017-05-26T23:33:13.558Z,78.30
2017-05-26T23:35:42.650Z,78.30
2017-05-26T23:38:11.746Z,78.70
2017-05-26T23:40:40.850Z,78.60
2017-05-26T23:43:09.989Z,78.70
2017-05-26T23:45:39.075Z,78.80
2017-05-26T23:48:08.122Z,78.70
2017-05-26T23:50:37.273Z,79.10
2017-05-26T23:53:06.338Z,78.90
2017-05-26T23:55:35.378Z,79.40
2017-05-26T23:58:04.453Z,79.90
